EJU57EB EHAM-EGBB
Flight info
| Callsign | EJU57EB |
|---|---|
| Flight time | 0h 57m |
| Altitude | 34000 |
| Route | IDRID L980 LAM L610 HEMEL |
| Aircraft | A320/M-SDE3FGHIRWY/LB1 |
Departure
| Time | 2026-04-29 10:46 |
|---|---|
| Airport | Amsterdam Airport Schiphol (EHAM) |
Arrival
| Time | 2026-04-29 11:44 |
|---|---|
| Airport | Birmingham Airport (EGBB) |
| Time | Latitude | Longitude | Altitude | Speed | Heading |
|---|---|---|---|---|---|
| 2026-04-29 10:03 | 52.31031 | 4.75457 | -6 ft | 0 kts | 149° |
| 2026-04-29 10:31 | 52.31036 | 4.75452 | -6 ft | 4 kts | 150° |
| 2026-04-29 10:31 | 52.31059 | 4.75431 | -6 ft | 4 kts | 121° |
| 2026-04-29 10:32 | 52.31063 | 4.75408 | -6 ft | 0 kts | 68° |
| 2026-04-29 10:34 | 52.31063 | 4.75409 | -6 ft | 0 kts | 68° |
| 2026-04-29 10:35 | 52.31066 | 4.75422 | -6 ft | 2 kts | 68° |
| 2026-04-29 10:35 | 52.31071 | 4.75436 | -6 ft | 0 kts | 56° |
| 2026-04-29 10:35 | 52.31075 | 4.75444 | -6 ft | 4 kts | 51° |
| 2026-04-29 10:36 | 52.31109 | 4.75487 | -6 ft | 7 kts | 24° |
| 2026-04-29 10:36 | 52.31164 | 4.75494 | -6 ft | 9 kts | 358° |
| 2026-04-29 10:36 | 52.31219 | 4.75488 | -6 ft | 7 kts | 356° |
| 2026-04-29 10:36 | 52.31273 | 4.75482 | -6 ft | 9 kts | 356° |
| 2026-04-29 10:37 | 52.31355 | 4.75475 | -6 ft | 16 kts | 357° |
| 2026-04-29 10:37 | 52.31459 | 4.75466 | -6 ft | 14 kts | 356° |
| 2026-04-29 10:37 | 52.31511 | 4.75373 | -6 ft | 13 kts | 267° |
| 2026-04-29 10:37 | 52.31504 | 4.75202 | -6 ft | 21 kts | 266° |
| 2026-04-29 10:38 | 52.31496 | 4.74985 | -6 ft | 18 kts | 267° |
| 2026-04-29 10:38 | 52.31490 | 4.74788 | -6 ft | 17 kts | 267° |
| 2026-04-29 10:38 | 52.31484 | 4.74601 | -6 ft | 17 kts | 267° |
| 2026-04-29 10:38 | 52.31478 | 4.74401 | -6 ft | 16 kts | 266° |
| 2026-04-29 10:39 | 52.31533 | 4.74294 | -6 ft | 14 kts | 359° |
| 2026-04-29 10:39 | 52.31638 | 4.74302 | -6 ft | 17 kts | 3° |
| 2026-04-29 10:39 | 52.31774 | 4.74314 | -6 ft | 21 kts | 3° |
| 2026-04-29 10:39 | 52.31926 | 4.74330 | -6 ft | 22 kts | 4° |
| 2026-04-29 10:40 | 52.32027 | 4.74273 | -6 ft | 10 kts | 272° |
| 2026-04-29 10:40 | 52.32035 | 4.74104 | -6 ft | 29 kts | 274° |
| 2026-04-29 10:40 | 52.32047 | 4.73802 | -4 ft | 22 kts | 273° |
| 2026-04-29 10:40 | 52.32056 | 4.73555 | -6 ft | 21 kts | 273° |
| 2026-04-29 10:41 | 52.32100 | 4.73342 | -6 ft | 19 kts | 314° |
| 2026-04-29 10:41 | 52.32196 | 4.73204 | -6 ft | 17 kts | 319° |
| 2026-04-29 10:41 | 52.32284 | 4.73081 | -6 ft | 16 kts | 319° |
| 2026-04-29 10:41 | 52.32362 | 4.72971 | -6 ft | 14 kts | 319° |
| 2026-04-29 10:42 | 52.32441 | 4.72861 | -6 ft | 16 kts | 320° |
| 2026-04-29 10:42 | 52.32528 | 4.72740 | -6 ft | 17 kts | 319° |
| 2026-04-29 10:42 | 52.32613 | 4.72621 | -6 ft | 15 kts | 319° |
| 2026-04-29 10:42 | 52.32700 | 4.72489 | -6 ft | 18 kts | 310° |
| 2026-04-29 10:43 | 52.32794 | 4.72311 | -6 ft | 25 kts | 311° |
| 2026-04-29 10:43 | 52.32912 | 4.72093 | -6 ft | 26 kts | 311° |
| 2026-04-29 10:43 | 52.33017 | 4.71900 | -6 ft | 21 kts | 311° |
| 2026-04-29 10:43 | 52.33108 | 4.71732 | -6 ft | 19 kts | 311° |
| 2026-04-29 10:44 | 52.33154 | 4.71559 | -6 ft | 16 kts | 262° |
| 2026-04-29 10:44 | 52.33095 | 4.71431 | -6 ft | 14 kts | 220° |
| 2026-04-29 10:44 | 52.33004 | 4.71301 | -6 ft | 20 kts | 221° |
| 2026-04-29 10:44 | 52.32905 | 4.71160 | -6 ft | 17 kts | 220° |
| 2026-04-29 10:45 | 52.32868 | 4.71000 | -5 ft | 15 kts | 272° |
| 2026-04-29 10:45 | 52.32918 | 4.70892 | -5 ft | 12 kts | 352° |
| 2026-04-29 10:45 | 52.32937 | 4.70892 | -5 ft | 0 kts | 1° |
| 2026-04-29 10:45 | 52.32938 | 4.70892 | -5 ft | 2 kts | 1° |
| 2026-04-29 10:46 | 52.33120 | 4.70911 | -7 ft | 62 kts | 4° |
| 2026-04-29 10:46 | 52.33774 | 4.70969 | -3 ft | 124 kts | 4° |
| 2026-04-29 10:46 | 52.34795 | 4.71042 | 120 ft | 159 kts | 6° |
| 2026-04-29 10:46 | 52.35883 | 4.71093 | 863 ft | 159 kts | 10° |
| 2026-04-29 10:47 | 52.37000 | 4.71216 | 1570 ft | 167 kts | 11° |
| 2026-04-29 10:47 | 52.38238 | 4.71375 | 1952 ft | 190 kts | 11° |
| 2026-04-29 10:47 | 52.39627 | 4.71543 | 2357 ft | 209 kts | 10° |
| 2026-04-29 10:47 | 52.41165 | 4.71720 | 2753 ft | 234 kts | 9° |
| 2026-04-29 10:48 | 52.42866 | 4.71901 | 3367 ft | 252 kts | 8° |
| 2026-04-29 10:48 | 52.44638 | 4.72075 | 4257 ft | 258 kts | 8° |
| 2026-04-29 10:48 | 52.46433 | 4.72247 | 5223 ft | 259 kts | 8° |
| 2026-04-29 10:48 | 52.48249 | 4.72418 | 6127 ft | 263 kts | 8° |
| 2026-04-29 10:49 | 52.50093 | 4.72594 | 6960 ft | 268 kts | 7° |
| 2026-04-29 10:49 | 52.51969 | 4.72773 | 7788 ft | 272 kts | 7° |
| 2026-04-29 10:49 | 52.53843 | 4.72954 | 8607 ft | 276 kts | 7° |
| 2026-04-29 10:49 | 52.55778 | 4.72834 | 9426 ft | 286 kts | 349° |
| 2026-04-29 10:50 | 52.57577 | 4.71352 | 10239 ft | 298 kts | 321° |
| 2026-04-29 10:50 | 52.58832 | 4.68561 | 10746 ft | 318 kts | 292° |
| 2026-04-29 10:50 | 52.59245 | 4.64864 | 10980 ft | 343 kts | 272° |
| 2026-04-29 10:50 | 52.58946 | 4.60904 | 11438 ft | 355 kts | 251° |
| 2026-04-29 10:51 | 52.57915 | 4.57204 | 12094 ft | 359 kts | 236° |
| 2026-04-29 10:51 | 52.56357 | 4.54007 | 12811 ft | 359 kts | 221° |
| 2026-04-29 10:51 | 52.54377 | 4.51528 | 13525 ft | 358 kts | 206° |
| 2026-04-29 10:51 | 52.52141 | 4.49840 | 14218 ft | 360 kts | 199° |
| 2026-04-29 10:52 | 52.49793 | 4.48221 | 14876 ft | 363 kts | 199° |
| 2026-04-29 10:52 | 52.47484 | 4.46646 | 15485 ft | 366 kts | 199° |
| 2026-04-29 10:52 | 52.45120 | 4.45040 | 16118 ft | 369 kts | 199° |
| 2026-04-29 10:52 | 52.42775 | 4.43246 | 16741 ft | 375 kts | 207° |
| 2026-04-29 10:53 | 52.40631 | 4.40750 | 17354 ft | 382 kts | 219° |
| 2026-04-29 10:53 | 52.38795 | 4.37573 | 17968 ft | 388 kts | 231° |
| 2026-04-29 10:53 | 52.37346 | 4.33812 | 18571 ft | 393 kts | 240° |
| 2026-04-29 10:53 | 52.36063 | 4.29841 | 19115 ft | 397 kts | 240° |
| 2026-04-29 10:54 | 52.34763 | 4.25840 | 19657 ft | 399 kts | 240° |
| 2026-04-29 10:54 | 52.33449 | 4.21822 | 20192 ft | 403 kts | 240° |
| 2026-04-29 10:54 | 52.32123 | 4.17774 | 20737 ft | 405 kts | 240° |
| 2026-04-29 10:54 | 52.30606 | 4.13885 | 21267 ft | 407 kts | 230° |
| 2026-04-29 10:55 | 52.28888 | 4.10276 | 21805 ft | 409 kts | 230° |
| 2026-04-29 10:55 | 52.27130 | 4.06603 | 22335 ft | 412 kts | 230° |
| 2026-04-29 10:55 | 52.25357 | 4.02906 | 22852 ft | 415 kts | 230° |
| 2026-04-29 10:55 | 52.23574 | 3.99189 | 23372 ft | 418 kts | 230° |
| 2026-04-29 10:56 | 52.21777 | 3.95436 | 23863 ft | 421 kts | 229° |
| 2026-04-29 10:56 | 52.19970 | 3.91665 | 24273 ft | 424 kts | 229° |
| 2026-04-29 10:56 | 52.18152 | 3.87872 | 24663 ft | 426 kts | 230° |
| 2026-04-29 10:56 | 52.16322 | 3.84058 | 25052 ft | 429 kts | 229° |
| 2026-04-29 10:57 | 52.14473 | 3.80224 | 25428 ft | 431 kts | 229° |
| 2026-04-29 10:57 | 52.12613 | 3.76380 | 25794 ft | 434 kts | 229° |
| 2026-04-29 10:57 | 52.10767 | 3.72564 | 26140 ft | 436 kts | 229° |
| 2026-04-29 10:57 | 52.08884 | 3.68677 | 26499 ft | 439 kts | 229° |
| 2026-04-29 10:58 | 52.06990 | 3.64770 | 26858 ft | 441 kts | 229° |
| 2026-04-29 10:58 | 52.05086 | 3.60848 | 27201 ft | 443 kts | 229° |
| 2026-04-29 10:58 | 52.03170 | 3.56912 | 27545 ft | 446 kts | 229° |
| 2026-04-29 10:58 | 52.01238 | 3.52955 | 27890 ft | 448 kts | 229° |
| 2026-04-29 10:59 | 51.99392 | 3.48866 | 28231 ft | 452 kts | 238° |
| 2026-04-29 10:59 | 51.98168 | 3.44150 | 28545 ft | 457 kts | 255° |
| 2026-04-29 10:59 | 51.97747 | 3.39028 | 28856 ft | 461 kts | 266° |
| 2026-04-29 10:59 | 51.97592 | 3.33823 | 29163 ft | 463 kts | 267° |
| 2026-04-29 11:00 | 51.97447 | 3.28658 | 29443 ft | 466 kts | 267° |
| 2026-04-29 11:00 | 51.97300 | 3.23398 | 29725 ft | 468 kts | 267° |
| 2026-04-29 11:00 | 51.97149 | 3.18112 | 30005 ft | 471 kts | 267° |
| 2026-04-29 11:00 | 51.96991 | 3.12795 | 30280 ft | 473 kts | 267° |
| 2026-04-29 11:01 | 51.96825 | 3.07464 | 30524 ft | 475 kts | 267° |
| 2026-04-29 11:01 | 51.96653 | 3.02101 | 30736 ft | 477 kts | 267° |
| 2026-04-29 11:01 | 51.96477 | 2.96718 | 30938 ft | 479 kts | 266° |
| 2026-04-29 11:01 | 51.96298 | 2.91313 | 31146 ft | 481 kts | 266° |
| 2026-04-29 11:02 | 51.96119 | 2.85959 | 31340 ft | 483 kts | 266° |
| 2026-04-29 11:02 | 51.95934 | 2.80523 | 31587 ft | 483 kts | 266° |
| 2026-04-29 11:02 | 51.95749 | 2.75092 | 31865 ft | 482 kts | 266° |
| 2026-04-29 11:02 | 51.95564 | 2.69664 | 32134 ft | 482 kts | 266° |
| 2026-04-29 11:03 | 51.95376 | 2.64241 | 32417 ft | 482 kts | 266° |
| 2026-04-29 11:03 | 51.95183 | 2.58810 | 32682 ft | 482 kts | 266° |
| 2026-04-29 11:03 | 51.94989 | 2.53390 | 32958 ft | 482 kts | 266° |
| 2026-04-29 11:03 | 51.94793 | 2.47975 | 33238 ft | 481 kts | 266° |
| 2026-04-29 11:04 | 51.94597 | 2.42633 | 33521 ft | 481 kts | 266° |
| 2026-04-29 11:04 | 51.94396 | 2.37226 | 33803 ft | 480 kts | 266° |
| 2026-04-29 11:04 | 51.94190 | 2.31824 | 34080 ft | 480 kts | 266° |
| 2026-04-29 11:04 | 51.93984 | 2.26428 | 34306 ft | 480 kts | 266° |
| 2026-04-29 11:05 | 51.93779 | 2.21051 | 34362 ft | 476 kts | 266° |
| 2026-04-29 11:05 | 51.93361 | 2.10391 | 34357 ft | 473 kts | 266° |
| 2026-04-29 11:06 | 51.92925 | 1.99748 | 34354 ft | 473 kts | 266° |
| 2026-04-29 11:06 | 51.92480 | 1.89185 | 34359 ft | 473 kts | 266° |
| 2026-04-29 11:07 | 51.92040 | 1.78539 | 34365 ft | 474 kts | 266° |
| 2026-04-29 11:07 | 51.91581 | 1.67892 | 34351 ft | 474 kts | 266° |
| 2026-04-29 11:08 | 51.91103 | 1.57238 | 34344 ft | 474 kts | 266° |
| 2026-04-29 11:08 | 51.90626 | 1.46671 | 34332 ft | 474 kts | 266° |
| 2026-04-29 11:09 | 51.90139 | 1.36009 | 34331 ft | 475 kts | 266° |
| 2026-04-29 11:09 | 51.89646 | 1.25346 | 34330 ft | 475 kts | 266° |
| 2026-04-29 11:10 | 51.89145 | 1.14672 | 34323 ft | 476 kts | 266° |
| 2026-04-29 11:10 | 51.88637 | 1.04053 | 34324 ft | 477 kts | 266° |
| 2026-04-29 11:11 | 51.88103 | 0.93352 | 34321 ft | 477 kts | 266° |
| 2026-04-29 11:11 | 51.87558 | 0.82641 | 34315 ft | 478 kts | 266° |
| 2026-04-29 11:12 | 51.87008 | 0.71910 | 34312 ft | 479 kts | 266° |
| 2026-04-29 11:12 | 51.86449 | 0.61152 | 34316 ft | 481 kts | 266° |
| 2026-04-29 11:13 | 51.85879 | 0.50410 | 34315 ft | 484 kts | 265° |
| 2026-04-29 11:13 | 51.85291 | 0.39543 | 34321 ft | 486 kts | 265° |
| 2026-04-29 11:14 | 51.84752 | 0.28632 | 34304 ft | 485 kts | 271° |
| 2026-04-29 11:14 | 51.85140 | 0.23272 | 33749 ft | 477 kts | 287° |
| 2026-04-29 11:14 | 51.86098 | 0.18140 | 32947 ft | 477 kts | 291° |
| 2026-04-29 11:14 | 51.87114 | 0.13054 | 32322 ft | 474 kts | 291° |
| 2026-04-29 11:15 | 51.88116 | 0.07985 | 31736 ft | 472 kts | 291° |
| 2026-04-29 11:15 | 51.89094 | 0.02938 | 31173 ft | 469 kts | 291° |
| 2026-04-29 11:15 | 51.90048 | -0.02092 | 30627 ft | 467 kts | 291° |
| 2026-04-29 11:15 | 51.90982 | -0.07119 | 30022 ft | 465 kts | 291° |
| 2026-04-29 11:16 | 51.91889 | -0.12070 | 29621 ft | 451 kts | 291° |
| 2026-04-29 11:16 | 51.92751 | -0.16832 | 28870 ft | 442 kts | 291° |
| 2026-04-29 11:16 | 51.93603 | -0.21575 | 28077 ft | 435 kts | 291° |
| 2026-04-29 11:16 | 51.94443 | -0.26253 | 27278 ft | 429 kts | 291° |
| 2026-04-29 11:17 | 51.95276 | -0.30872 | 26522 ft | 424 kts | 291° |
| 2026-04-29 11:17 | 51.96099 | -0.35425 | 25785 ft | 418 kts | 291° |
| 2026-04-29 11:17 | 51.96914 | -0.39926 | 25054 ft | 413 kts | 291° |
| 2026-04-29 11:17 | 51.97723 | -0.44369 | 24208 ft | 411 kts | 291° |
| 2026-04-29 11:18 | 51.98556 | -0.48856 | 23423 ft | 417 kts | 291° |
| 2026-04-29 11:18 | 51.99392 | -0.53340 | 22876 ft | 413 kts | 291° |
| 2026-04-29 11:18 | 52.00217 | -0.57775 | 22027 ft | 408 kts | 291° |
| 2026-04-29 11:18 | 52.01019 | -0.62096 | 21212 ft | 403 kts | 291° |
| 2026-04-29 11:19 | 52.01825 | -0.66431 | 20431 ft | 399 kts | 291° |
| 2026-04-29 11:19 | 52.02620 | -0.70715 | 19674 ft | 394 kts | 291° |
| 2026-04-29 11:19 | 52.03405 | -0.74948 | 18952 ft | 389 kts | 291° |
| 2026-04-29 11:19 | 52.04181 | -0.79138 | 18173 ft | 385 kts | 291° |
| 2026-04-29 11:20 | 52.04949 | -0.83270 | 17398 ft | 380 kts | 291° |
| 2026-04-29 11:20 | 52.05711 | -0.87353 | 16659 ft | 375 kts | 291° |
| 2026-04-29 11:20 | 52.06463 | -0.91375 | 15942 ft | 370 kts | 291° |
| 2026-04-29 11:20 | 52.07209 | -0.95351 | 15228 ft | 366 kts | 291° |
| 2026-04-29 11:21 | 52.07947 | -0.99284 | 14553 ft | 361 kts | 291° |
| 2026-04-29 11:21 | 52.08674 | -1.03168 | 13882 ft | 357 kts | 290° |
| 2026-04-29 11:21 | 52.09385 | -1.06950 | 13162 ft | 353 kts | 290° |
| 2026-04-29 11:21 | 52.10104 | -1.10740 | 12430 ft | 349 kts | 291° |
| 2026-04-29 11:22 | 52.10825 | -1.14484 | 11805 ft | 345 kts | 291° |
| 2026-04-29 11:22 | 52.11548 | -1.18200 | 11339 ft | 343 kts | 291° |
| 2026-04-29 11:22 | 52.12270 | -1.21885 | 10966 ft | 341 kts | 290° |
| 2026-04-29 11:22 | 52.12987 | -1.25532 | 10733 ft | 333 kts | 291° |
| 2026-04-29 11:23 | 52.13687 | -1.29078 | 10471 ft | 327 kts | 291° |
| 2026-04-29 11:23 | 52.14382 | -1.32591 | 10085 ft | 325 kts | 291° |
| 2026-04-29 11:23 | 52.15077 | -1.36088 | 9631 ft | 325 kts | 291° |
| 2026-04-29 11:23 | 52.15780 | -1.39588 | 9148 ft | 326 kts | 290° |
| 2026-04-29 11:24 | 52.16482 | -1.43046 | 8651 ft | 326 kts | 290° |
| 2026-04-29 11:24 | 52.17198 | -1.46555 | 8140 ft | 327 kts | 290° |
| 2026-04-29 11:24 | 52.17908 | -1.50034 | 7670 ft | 318 kts | 290° |
| 2026-04-29 11:24 | 52.18614 | -1.53369 | 7218 ft | 305 kts | 296° |
| 2026-04-29 11:25 | 52.19784 | -1.56096 | 6769 ft | 287 kts | 324° |
| 2026-04-29 11:25 | 52.21476 | -1.57582 | 6298 ft | 272 kts | 350° |
| 2026-04-29 11:25 | 52.23321 | -1.58152 | 5828 ft | 269 kts | 359° |
| 2026-04-29 11:25 | 52.25177 | -1.58454 | 5366 ft | 270 kts | 1° |
| 2026-04-29 11:26 | 52.28903 | -1.59044 | 4412 ft | 263 kts | 0° |
| 2026-04-29 11:26 | 52.30694 | -1.59345 | 3993 ft | 254 kts | 358° |
| 2026-04-29 11:26 | 52.32352 | -1.60365 | 3389 ft | 267 kts | 334° |
| 2026-04-29 11:27 | 52.33902 | -1.62061 | 2963 ft | 269 kts | 331° |
| 2026-04-29 11:27 | 52.35444 | -1.63784 | 2589 ft | 269 kts | 331° |
| 2026-04-29 11:27 | 52.36982 | -1.65490 | 2216 ft | 264 kts | 331° |
| 2026-04-29 11:27 | 52.38494 | -1.67162 | 1842 ft | 261 kts | 330° |
| 2026-04-29 11:28 | 52.39979 | -1.68806 | 1501 ft | 255 kts | 330° |
| 2026-04-29 11:28 | 52.41443 | -1.70427 | 1155 ft | 254 kts | 330° |
| 2026-04-29 11:28 | 52.42918 | -1.72060 | 1021 ft | 263 kts | 330° |
| 2026-04-29 11:28 | 52.44418 | -1.73726 | 2450 ft | 259 kts | 331° |
| 2026-04-29 11:29 | 52.45959 | -1.75430 | 3002 ft | 273 kts | 331° |
| 2026-04-29 11:29 | 52.47481 | -1.77134 | 3009 ft | 256 kts | 331° |
| 2026-04-29 11:29 | 52.48913 | -1.78732 | 3008 ft | 245 kts | 332° |
| 2026-04-29 11:29 | 52.50307 | -1.80324 | 3012 ft | 244 kts | 331° |
| 2026-04-29 11:30 | 52.51695 | -1.81937 | 3008 ft | 245 kts | 330° |
| 2026-04-29 11:30 | 52.53084 | -1.83560 | 3010 ft | 246 kts | 330° |
| 2026-04-29 11:30 | 52.54474 | -1.85184 | 3010 ft | 246 kts | 330° |
| 2026-04-29 11:30 | 52.55866 | -1.86812 | 3007 ft | 245 kts | 330° |
| 2026-04-29 11:31 | 52.57253 | -1.88432 | 3017 ft | 246 kts | 330° |
| 2026-04-29 11:31 | 52.58647 | -1.90042 | 3001 ft | 243 kts | 333° |
| 2026-04-29 11:31 | 52.60184 | -1.90927 | 3007 ft | 230 kts | 5° |
| 2026-04-29 11:31 | 52.61657 | -1.90359 | 3010 ft | 217 kts | 36° |
| 2026-04-29 11:32 | 52.62635 | -1.88582 | 3004 ft | 210 kts | 67° |
| 2026-04-29 11:32 | 52.62995 | -1.86270 | 3014 ft | 211 kts | 79° |
| 2026-04-29 11:32 | 52.63226 | -1.83888 | 3006 ft | 212 kts | 81° |
| 2026-04-29 11:32 | 52.63453 | -1.81481 | 3013 ft | 213 kts | 80° |
| 2026-04-29 11:33 | 52.63668 | -1.79068 | 3002 ft | 212 kts | 83° |
| 2026-04-29 11:33 | 52.63452 | -1.76694 | 3004 ft | 215 kts | 113° |
| 2026-04-29 11:33 | 52.62413 | -1.74854 | 3005 ft | 228 kts | 140° |
| 2026-04-29 11:33 | 52.61038 | -1.73517 | 3009 ft | 231 kts | 145° |
| 2026-04-29 11:34 | 52.59647 | -1.72284 | 3008 ft | 231 kts | 146° |
| 2026-04-29 11:34 | 52.58230 | -1.71043 | 3009 ft | 231 kts | 146° |
| 2026-04-29 11:34 | 52.56816 | -1.69802 | 3004 ft | 231 kts | 146° |
| 2026-04-29 11:34 | 52.55398 | -1.68545 | 3003 ft | 232 kts | 146° |
| 2026-04-29 11:35 | 52.53979 | -1.67280 | 2998 ft | 231 kts | 146° |
| 2026-04-29 11:35 | 52.52570 | -1.66022 | 3010 ft | 230 kts | 146° |
| 2026-04-29 11:35 | 52.51168 | -1.64776 | 3006 ft | 231 kts | 146° |
| 2026-04-29 11:35 | 52.49738 | -1.63489 | 3000 ft | 235 kts | 145° |
| 2026-04-29 11:36 | 52.48293 | -1.62195 | 3014 ft | 238 kts | 146° |
| 2026-04-29 11:36 | 52.46842 | -1.60904 | 3001 ft | 236 kts | 146° |
| 2026-04-29 11:36 | 52.45391 | -1.59628 | 3005 ft | 237 kts | 146° |
| 2026-04-29 11:36 | 52.43955 | -1.58379 | 3006 ft | 236 kts | 146° |
| 2026-04-29 11:37 | 52.42507 | -1.57121 | 3011 ft | 236 kts | 146° |
| 2026-04-29 11:37 | 52.41067 | -1.55876 | 3002 ft | 229 kts | 146° |
| 2026-04-29 11:37 | 52.39681 | -1.54693 | 3002 ft | 222 kts | 146° |
| 2026-04-29 11:37 | 52.38318 | -1.53535 | 3003 ft | 218 kts | 146° |
| 2026-04-29 11:38 | 52.37008 | -1.52436 | 3009 ft | 206 kts | 146° |
| 2026-04-29 11:38 | 52.35743 | -1.51370 | 3004 ft | 205 kts | 146° |
| 2026-04-29 11:38 | 52.34475 | -1.50292 | 3045 ft | 205 kts | 146° |
| 2026-04-29 11:38 | 52.33190 | -1.49268 | 3043 ft | 208 kts | 155° |
| 2026-04-29 11:39 | 52.31715 | -1.49213 | 3047 ft | 223 kts | 191° |
| 2026-04-29 11:39 | 52.30397 | -1.50566 | 3049 ft | 235 kts | 227° |
| 2026-04-29 11:39 | 52.29662 | -1.52956 | 3056 ft | 239 kts | 258° |
| 2026-04-29 11:39 | 52.29667 | -1.55632 | 2954 ft | 234 kts | 289° |
| 2026-04-29 11:40 | 52.30370 | -1.57932 | 2689 ft | 224 kts | 318° |
| 2026-04-29 11:40 | 52.31535 | -1.59469 | 2508 ft | 209 kts | 334° |
| 2026-04-29 11:40 | 52.32719 | -1.60765 | 2498 ft | 200 kts | 333° |
| 2026-04-29 11:40 | 52.33851 | -1.62015 | 2503 ft | 192 kts | 333° |
| 2026-04-29 11:41 | 52.34924 | -1.63202 | 2514 ft | 179 kts | 335° |
| 2026-04-29 11:41 | 52.35939 | -1.64330 | 2513 ft | 172 kts | 334° |
| 2026-04-29 11:41 | 52.36914 | -1.65410 | 2504 ft | 171 kts | 335° |
| 2026-04-29 11:41 | 52.37902 | -1.66503 | 2511 ft | 172 kts | 334° |
| 2026-04-29 11:42 | 52.38897 | -1.67623 | 2379 ft | 175 kts | 334° |
| 2026-04-29 11:42 | 52.39882 | -1.68813 | 1938 ft | 178 kts | 333° |
| 2026-04-29 11:42 | 52.40923 | -1.69915 | 1573 ft | 173 kts | 336° |
| 2026-04-29 11:42 | 52.41899 | -1.70961 | 1279 ft | 165 kts | 329° |
| 2026-04-29 11:43 | 52.42817 | -1.72016 | 908 ft | 158 kts | 335° |
| 2026-04-29 11:43 | 52.43732 | -1.72978 | 575 ft | 155 kts | 332° |
| 2026-04-29 11:43 | 52.44601 | -1.73949 | 376 ft | 149 kts | 335° |
| 2026-04-29 11:43 | 52.45420 | -1.74837 | 326 ft | 127 kts | 327° |
| 2026-04-29 11:44 | 52.45898 | -1.75378 | 325 ft | 49 kts | 326° |
| 2026-04-29 11:44 | 52.46105 | -1.75603 | 317 ft | 22 kts | 325° |
| 2026-04-29 11:44 | 52.46178 | -1.75549 | 315 ft | 9 kts | 53° |
| 2026-04-29 11:44 | 52.46204 | -1.75489 | 314 ft | 0 kts | 57° |
| 2026-04-29 11:45 | 52.46211 | -1.75469 | 312 ft | 5 kts | 60° |
| 2026-04-29 11:45 | 52.46195 | -1.75379 | 312 ft | 12 kts | 139° |
| 2026-04-29 11:45 | 52.46128 | -1.75305 | 316 ft | 11 kts | 147° |
| 2026-04-29 11:45 | 52.46070 | -1.75240 | 319 ft | 11 kts | 145° |
| 2026-04-29 11:46 | 52.46011 | -1.75171 | 323 ft | 10 kts | 145° |
| 2026-04-29 11:46 | 52.45942 | -1.75097 | 323 ft | 15 kts | 146° |
| 2026-04-29 11:46 | 52.45853 | -1.74997 | 325 ft | 16 kts | 145° |
| 2026-04-29 11:46 | 52.45756 | -1.74888 | 327 ft | 17 kts | 144° |
| 2026-04-29 11:47 | 52.45655 | -1.74772 | 325 ft | 18 kts | 144° |
| 2026-04-29 11:47 | 52.45552 | -1.74659 | 328 ft | 18 kts | 148° |
| 2026-04-29 11:47 | 52.45478 | -1.74576 | 326 ft | 13 kts | 130° |
| 2026-04-29 11:47 | 52.45437 | -1.74457 | 329 ft | 12 kts | 115° |
| 2026-04-29 11:48 | 52.45405 | -1.74351 | 331 ft | 10 kts | 117° |
| 2026-04-29 11:48 | 52.45370 | -1.74239 | 331 ft | 12 kts | 117° |
| 2026-04-29 11:48 | 52.45330 | -1.74111 | 330 ft | 11 kts | 116° |
| 2026-04-29 11:48 | 52.45308 | -1.74018 | 330 ft | 10 kts | 94° |
| 2026-04-29 11:49 | 52.45343 | -1.73906 | 331 ft | 12 kts | 56° |
| 2026-04-29 11:49 | 52.45391 | -1.73789 | 328 ft | 12 kts | 56° |
| 2026-04-29 11:49 | 52.45422 | -1.73715 | 329 ft | 7 kts | 56° |
| 2026-04-29 11:49 | 52.45397 | -1.73658 | 330 ft | 8 kts | 146° |
| 2026-04-29 11:50 | 52.45361 | -1.73617 | 331 ft | 5 kts | 146° |
| 2026-04-29 11:50 | 52.45349 | -1.73604 | 327 ft | 0 kts | 146° |